Time;durP1;ratioP1;P1;durP2;ratioP2;P2;SDS_P1;SDS_P2;PMS_P1;PMS_P2;Temp;Humidity;BMP_temperature;BMP_pressure;BME280_temperature;BME280_humidity;BME280_pressure;Samples;Min_cycle;Max_cycle;Signal;HPM_P1;HPM_P2
2022/11/17 00:00:00;;;;;;;;;6.00;2.67;;;;;;;;4930861;28;45405;-72
2022/11/17 00:02:25;;;;;;;;;14.33;6.33;;;;;;;;4922366;28;45900;-71
2022/11/17 00:04:51;;;;;;;;;2.67;0.67;;;;;;;;4924869;28;45755;-74
2022/11/17 00:07:16;;;;;;;;;3.00;1.00;;;;;;;;4904524;28;45430;-72
2022/11/17 00:09:41;;;;;;;;;5.33;4.00;;;;;;;;4917243;28;45425;-72
2022/11/17 00:14:50;;;;;;;;;5.67;4.00;;;;;;;;4917302;28;46007;-72
2022/11/17 00:17:16;;;;;;;;;4.67;2.33;;;;;;;;4933122;28;45778;-73
2022/11/17 00:22:24;;;;;;;;;9.00;4.00;;;;;;;;4930790;28;45693;-72
2022/11/17 00:24:50;;;;;;;;;8.00;1.00;;;;;;;;4911932;28;45421;-74
2022/11/17 00:27:15;;;;;;;;;4.00;1.67;;;;;;;;4935099;28;45417;-70
2022/11/17 00:29:41;;;;;;;;;5.67;3.33;;;;;;;;4935385;28;45539;-74
2022/11/17 00:35:00;;;;;;;;;8.00;4.00;;;;;;;;4924362;28;45388;-72
2022/11/17 00:37:26;;;;;;;;;1.33;1.33;;;;;;;;4920581;28;45492;-71
2022/11/17 00:39:51;;;;;;;;;15.33;4.67;;;;;;;;4904023;28;46943;-72
2022/11/17 00:42:16;;;;;;;;;9.67;6.00;;;;;;;;4920054;28;45364;-73
2022/11/17 00:44:42;;;;;;;;;4.00;1.67;;;;;;;;4922295;28;45367;-72
2022/11/17 00:47:07;;;;;;;;;7.67;4.00;;;;;;;;4922136;28;45468;-72
2022/11/17 00:49:33;;;;;;;;;11.33;5.00;;;;;;;;4904967;28;45740;-72
2022/11/17 00:51:58;;;;;;;;;4.67;2.00;;;;;;;;4926070;28;46045;-71
2022/11/17 00:54:24;;;;;;;;;2.67;2.00;;;;;;;;4930551;28;45539;-73
2022/11/17 00:56:49;;;;;;;;;8.00;4.00;;;;;;;;4927214;28;46071;-72
2022/11/17 00:59:14;;;;;;;;;6.33;3.33;;;;;;;;4921426;28;45432;-71
2022/11/17 01:01:40;;;;;;;;;9.33;3.33;;;;;;;;4911707;28;46386;-74
2022/11/17 01:04:05;;;;;;;;;4.67;3.00;;;;;;;;4935640;28;45420;-71
2022/11/17 01:06:34;;;;;;;;;4.33;2.00;;;;;;;;4923539;28;45459;-71
2022/11/17 01:09:00;;;;;;;;;5.33;3.67;;;;;;;;4922013;28;45712;-72
2022/11/17 01:11:25;;;;;;;;;8.33;3.00;;;;;;;;4922379;28;45382;-71
2022/11/17 01:13:53;;;;;;;;;7.67;2.67;;;;;;;;4921429;28;45439;-72
2022/11/17 01:16:18;;;;;;;;;3.67;3.67;;;;;;;;4923702;28;45361;-71
2022/11/17 01:18:44;;;;;;;;;5.67;4.33;;;;;;;;4921949;28;45330;-70
2022/11/17 01:21:13;;;;;;;;;9.00;4.00;;;;;;;;4919743;28;46568;-72
2022/11/17 01:23:39;;;;;;;;;3.33;2.67;;;;;;;;4924899;28;45421;-70
2022/11/17 01:26:06;;;;;;;;;7.00;2.00;;;;;;;;4915643;28;45466;-70
2022/11/17 01:28:32;;;;;;;;;5.00;3.00;;;;;;;;4927634;28;45419;-70
2022/11/17 01:30:58;;;;;;;;;1.33;1.00;;;;;;;;4910456;28;47366;-71
2022/11/17 01:33:23;;;;;;;;;6.33;3.00;;;;;;;;4924049;28;45400;-71
2022/11/17 01:35:49;;;;;;;;;1.67;0.33;;;;;;;;4923230;28;45637;-70
2022/11/17 01:38:14;;;;;;;;;0.25;0.25;;;;;;;;4906900;28;47195;-71
2022/11/17 01:40:39;;;;;;;;;1.00;1.00;;;;;;;;4926925;28;46005;-71
2022/11/17 01:43:07;;;;;;;;;2.00;0.00;;;;;;;;4924200;28;45353;-71
2022/11/17 01:45:33;;;;;;;;;3.67;1.00;;;;;;;;4927331;28;45397;-72
2022/11/17 01:48:00;;;;;;;;;1.67;0.33;;;;;;;;4907852;28;45773;-70
2022/11/17 01:50:28;;;;;;;;;1.00;1.00;;;;;;;;4919250;28;45682;-71
2022/11/17 01:52:58;;;;;;;;;3.00;0.67;;;;;;;;4921392;28;45626;-70
2022/11/17 01:55:25;;;;;;;;;0.00;0.00;;;;;;;;4921998;28;45579;-71
2022/11/17 01:57:55;;;;;;;;;1.50;0.00;;;;;;;;4924721;28;45673;-71
2022/11/17 02:00:20;;;;;;;;;0.67;0.67;;;;;;;;4925665;28;45572;-71
2022/11/17 02:02:46;;;;;;;;;2.00;1.00;;;;;;;;4923091;28;45470;-71
2022/11/17 02:05:18;;;;;;;;;0.67;0.33;;;;;;;;4933615;28;45479;-71
2022/11/17 02:07:43;;;;;;;;;1.00;0.00;;;;;;;;4932693;28;45894;-71
2022/11/17 02:10:09;;;;;;;;;4.67;1.67;;;;;;;;4933103;28;45829;-69
2022/11/17 02:12:35;;;;;;;;;0.67;0.33;;;;;;;;4932721;28;45459;-70
2022/11/17 02:15:01;;;;;;;;;1.00;1.00;;;;;;;;4916219;28;45405;-70
2022/11/17 02:17:35;;;;;;;;;3.00;1.00;;;;;;;;4932221;28;45322;-71
2022/11/17 02:20:04;;;;;;;;;1.00;0.67;;;;;;;;4933088;28;46614;-70
2022/11/17 02:22:49;;;;;;;;;2.00;1.00;;;;;;;;4932071;28;45378;-72
2022/11/17 02:25:21;;;;;;;;;3.33;1.33;;;;;;;;4933161;28;45623;-70
2022/11/17 02:27:55;;;;;;;;;2.00;1.00;;;;;;;;4933555;28;45643;-70
2022/11/17 02:30:21;;;;;;;;;3.33;1.00;;;;;;;;4911969;28;47250;-70
2022/11/17 02:32:59;;;;;;;;;1.00;0.50;;;;;;;;4897741;28;45353;-70
2022/11/17 02:35:40;;;;;;;;;0.25;0.25;;;;;;;;4918026;28;45644;-71
2022/11/17 02:38:20;;;;;;;;;0.33;0.00;;;;;;;;4920170;28;45742;-70
2022/11/17 02:41:21;;;;;;;;;7.67;0.00;;;;;;;;4919697;28;45615;-71
2022/11/17 02:44:07;;;;;;;;;1.50;0.50;;;;;;;;4870275;29;45497;-71
2022/11/17 02:46:38;;;;;;;;;3.00;0.50;;;;;;;;4903203;28;45684;-71
2022/11/17 02:49:06;;;;;;;;;3.33;0.67;;;;;;;;4919679;28;45715;-71
2022/11/17 02:51:33;;;;;;;;;2.67;1.00;;;;;;;;4923949;28;45641;-71
2022/11/17 02:54:00;;;;;;;;;1.67;0.33;;;;;;;;4901903;28;45756;-70
2022/11/17 02:56:25;;;;;;;;;0.00;0.00;;;;;;;;4931732;28;45413;-69
2022/11/17 02:58:53;;;;;;;;;1.00;1.00;;;;;;;;4902149;28;46000;-71
2022/11/17 03:01:27;;;;;;;;;0.67;0.00;;;;;;;;4906707;28;47775;-69
2022/11/17 03:03:53;;;;;;;;;1.00;0.00;;;;;;;;4926210;28;45389;-70
2022/11/17 03:06:25;;;;;;;;;1.67;1.67;;;;;;;;4922788;28;45532;-70
2022/11/17 03:08:53;;;;;;;;;0.33;0.33;;;;;;;;4935139;28;45734;-71
2022/11/17 03:11:22;;;;;;;;;0.00;0.00;;;;;;;;4935277;28;45404;-71
2022/11/17 03:14:06;;;;;;;;;1.00;0.33;;;;;;;;4916009;28;45473;-70
2022/11/17 03:16:32;;;;;;;;;0.00;0.00;;;;;;;;4917056;28;45417;-70
2022/11/17 03:19:09;;;;;;;;;1.50;0.00;;;;;;;;4918021;28;45589;-70
2022/11/17 03:21:37;;;;;;;;;0.67;0.00;;;;;;;;4921354;28;45402;-69
2022/11/17 03:24:11;;;;;;;;;2.25;0.50;;;;;;;;4950460;28;45842;-70
2022/11/17 03:26:42;;;;;;;;;1.75;0.75;;;;;;;;4946312;28;45709;-70
2022/11/17 03:29:12;;;;;;;;;0.00;0.00;;;;;;;;4941428;28;45700;-70
2022/11/17 03:31:38;;;;;;;;;2.67;0.33;;;;;;;;4942039;28;46197;-70
2022/11/17 03:34:06;;;;;;;;;0.00;0.00;;;;;;;;4918371;28;45726;-71
2022/11/17 03:36:34;;;;;;;;;0.33;0.33;;;;;;;;4917811;28;45961;-71
2022/11/17 03:39:06;;;;;;;;;2.25;0.50;;;;;;;;4925538;28;45670;-70
2022/11/17 03:41:35;;;;;;;;;0.00;0.00;;;;;;;;4934409;28;47110;-72
2022/11/17 03:44:02;;;;;;;;;1.00;1.00;;;;;;;;4904997;28;45432;-71
2022/11/17 03:46:28;;;;;;;;;0.00;0.00;;;;;;;;4936702;28;45706;-71
2022/11/17 03:49:01;;;;;;;;;0.67;0.67;;;;;;;;4914472;28;46368;-70
2022/11/17 03:51:28;;;;;;;;;0.00;0.00;;;;;;;;4917437;28;45731;-69
2022/11/17 03:53:54;;;;;;;;;1.00;0.00;;;;;;;;4930482;28;45482;-70
2022/11/17 03:56:38;;;;;;;;;2.00;0.00;;;;;;;;4913716;28;45558;-69
2022/11/17 03:59:16;;;;;;;;;1.00;0.00;;;;;;;;4925403;28;45499;-69
2022/11/17 04:01:41;;;;;;;;;0.00;0.00;;;;;;;;4930985;28;46214;-71
2022/11/17 04:04:11;;;;;;;;;0.00;0.00;;;;;;;;4909594;28;45360;-70
2022/11/17 04:06:38;;;;;;;;;1.00;0.00;;;;;;;;4932979;28;45808;-69
2022/11/17 04:09:03;;;;;;;;;0.00;0.00;;;;;;;;4932329;28;45422;-70
2022/11/17 04:16:57;;;;;;;;;2.00;0.00;;;;;;;;4927638;28;45317;-70
2022/11/17 04:19:22;;;;;;;;;0.67;0.00;;;;;;;;4931347;28;45474;-70
2022/11/17 04:21:47;;;;;;;;;0.00;0.00;;;;;;;;4929325;28;46315;-70
2022/11/17 04:24:12;;;;;;;;;0.00;0.00;;;;;;;;4922217;28;45392;-72
2022/11/17 04:29:22;;;;;;;;;0.00;0.00;;;;;;;;4928135;28;45504;-72
2022/11/17 04:31:47;;;;;;;;;0.67;0.00;;;;;;;;4945324;28;45744;-71
2022/11/17 04:34:12;;;;;;;;;0.00;0.00;;;;;;;;4927082;28;45748;-72
2022/11/17 04:36:44;;;;;;;;;0.00;0.00;;;;;;;;4905605;28;45445;-70
2022/11/17 04:39:13;;;;;;;;;0.00;0.00;;;;;;;;4921556;28;45632;-70
2022/11/17 04:41:56;;;;;;;;;0.00;0.00;;;;;;;;4923675;28;46475;-69
2022/11/17 04:44:22;;;;;;;;;0.00;0.00;;;;;;;;4920828;28;45299;-70
2022/11/17 04:46:48;;;;;;;;;0.00;0.00;;;;;;;;4920621;28;45702;-71
2022/11/17 04:49:13;;;;;;;;;1.33;0.00;;;;;;;;4916503;28;45621;-72
2022/11/17 04:51:39;;;;;;;;;0.67;0.00;;;;;;;;4924630;28;46419;-70
2022/11/17 04:54:05;;;;;;;;;0.67;0.00;;;;;;;;4922747;28;45393;-72
2022/11/17 04:56:30;;;;;;;;;0.00;0.00;;;;;;;;4907848;28;45744;-71
2022/11/17 04:58:56;;;;;;;;;0.00;0.00;;;;;;;;4903564;28;45759;-70
2022/11/17 05:01:21;;;;;;;;;0.00;0.00;;;;;;;;4921992;28;46020;-71
2022/11/17 05:03:54;;;;;;;;;0.00;0.00;;;;;;;;4916585;28;45733;-71
2022/11/17 05:06:20;;;;;;;;;0.00;0.00;;;;;;;;4919797;28;45579;-71
2022/11/17 05:08:54;;;;;;;;;0.00;0.00;;;;;;;;4903823;28;46181;-71
2022/11/17 05:14:03;;;;;;;;;0.00;0.00;;;;;;;;4917692;28;45409;-70
2022/11/17 05:19:15;;;;;;;;;0.00;0.00;;;;;;;;4923099;28;45345;-71
2022/11/17 05:21:40;;;;;;;;;0.00;0.00;;;;;;;;4922430;28;46893;-71
2022/11/17 05:24:06;;;;;;;;;0.00;0.00;;;;;;;;4905986;28;45366;-71
2022/11/17 05:26:32;;;;;;;;;1.00;0.00;;;;;;;;4917506;28;45482;-70
2022/11/17 05:28:58;;;;;;;;;1.00;0.00;;;;;;;;4911662;28;47359;-71
2022/11/17 05:31:24;;;;;;;;;0.00;0.00;;;;;;;;4899142;28;47340;-72
2022/11/17 05:33:49;;;;;;;;;1.00;0.00;;;;;;;;4919841;28;45399;-71
2022/11/17 05:36:15;;;;;;;;;3.00;0.00;;;;;;;;4925906;28;45814;-70
2022/11/17 05:38:40;;;;;;;;;0.00;0.00;;;;;;;;4920696;28;46109;-72
2022/11/17 05:41:06;;;;;;;;;1.00;0.00;;;;;;;;4916843;28;46836;-72
2022/11/17 05:43:31;;;;;;;;;0.67;0.67;;;;;;;;4931420;28;45560;-72
2022/11/17 05:45:56;;;;;;;;;0.00;0.00;;;;;;;;4922564;28;45366;-71
2022/11/17 05:48:22;;;;;;;;;0.00;0.00;;;;;;;;4921473;28;45521;-72
2022/11/17 05:50:47;;;;;;;;;0.33;0.00;;;;;;;;4923164;28;45401;-71
2022/11/17 05:53:12;;;;;;;;;0.67;0.00;;;;;;;;4914555;28;45486;-72
2022/11/17 05:55:38;;;;;;;;;0.00;0.00;;;;;;;;4927129;28;45380;-75
2022/11/17 05:58:23;;;;;;;;;1.00;0.00;;;;;;;;4906914;28;47505;-72
2022/11/17 06:00:50;;;;;;;;;0.00;0.00;;;;;;;;4932904;28;45711;-71
2022/11/17 06:03:19;;;;;;;;;0.67;0.67;;;;;;;;4916654;28;45444;-71
2022/11/17 06:05:45;;;;;;;;;1.33;0.33;;;;;;;;4922709;28;45357;-72
2022/11/17 06:08:10;;;;;;;;;0.00;0.00;;;;;;;;4918572;28;45543;-71
2022/11/17 06:10:35;;;;;;;;;2.00;1.00;;;;;;;;4905659;28;47471;-71
2022/11/17 06:13:01;;;;;;;;;1.00;0.00;;;;;;;;4919480;28;45882;-72
2022/11/17 06:15:26;;;;;;;;;1.00;1.00;;;;;;;;4910208;28;45355;-73
2022/11/17 06:18:03;;;;;;;;;0.33;0.00;;;;;;;;4932357;28;45495;-72
2022/11/17 06:20:34;;;;;;;;;0.00;0.00;;;;;;;;4923852;28;46367;-72
2022/11/17 06:23:01;;;;;;;;;0.33;0.33;;;;;;;;4918300;28;45769;-71
2022/11/17 06:25:27;;;;;;;;;1.00;0.00;;;;;;;;4915967;28;47174;-70
2022/11/17 06:27:52;;;;;;;;;1.00;0.00;;;;;;;;4919583;28;45767;-70
2022/11/17 06:30:18;;;;;;;;;0.67;0.33;;;;;;;;4935058;28;45744;-71
2022/11/17 06:32:43;;;;;;;;;1.33;1.33;;;;;;;;4899635;28;45513;-69
2022/11/17 06:35:11;;;;;;;;;0.00;0.00;;;;;;;;4888283;28;45396;-70
2022/11/17 06:37:36;;;;;;;;;3.00;0.00;;;;;;;;4906013;28;46925;-70
2022/11/17 06:40:01;;;;;;;;;4.67;0.33;;;;;;;;4911139;28;47444;-72
2022/11/17 06:45:11;;;;;;;;;2.00;1.00;;;;;;;;4925199;28;45768;-72
2022/11/17 06:47:36;;;;;;;;;2.00;0.33;;;;;;;;4937019;28;45595;-76
2022/11/17 06:50:02;;;;;;;;;1.67;1.00;;;;;;;;4937913;28;45683;-75
2022/11/17 06:52:27;;;;;;;;;0.00;0.00;;;;;;;;4932407;28;45367;-74
2022/11/17 06:54:52;;;;;;;;;0.67;0.67;;;;;;;;4904955;28;45629;-75
2022/11/17 06:57:17;;;;;;;;;0.00;0.00;;;;;;;;4912288;28;45937;-75
2022/11/17 06:59:43;;;;;;;;;0.00;0.00;;;;;;;;4911454;28;46061;-76
2022/11/17 07:02:08;;;;;;;;;0.33;0.33;;;;;;;;4924225;28;44998;-76
2022/11/17 07:04:33;;;;;;;;;0.00;0.00;;;;;;;;4914544;28;45381;-71
2022/11/17 07:06:59;;;;;;;;;1.33;0.67;;;;;;;;4907335;28;45767;-71
2022/11/17 07:09:25;;;;;;;;;0.00;0.00;;;;;;;;4912760;28;45633;-75
2022/11/17 07:11:50;;;;;;;;;3.33;1.33;;;;;;;;4921759;28;45918;-70
2022/11/17 07:14:15;;;;;;;;;1.00;1.00;;;;;;;;4896108;28;45752;-71
2022/11/17 07:16:41;;;;;;;;;0.00;0.00;;;;;;;;4912999;28;45373;-71
2022/11/17 07:19:08;;;;;;;;;1.67;0.67;;;;;;;;4900033;28;46061;-70
2022/11/17 07:21:34;;;;;;;;;2.00;1.00;;;;;;;;4905892;28;46188;-72
2022/11/17 07:23:59;;;;;;;;;3.33;1.00;;;;;;;;4904311;28;45535;-71
2022/11/17 07:26:24;;;;;;;;;1.33;1.33;;;;;;;;4911071;28;45421;-70
2022/11/17 07:28:49;;;;;;;;;1.67;1.00;;;;;;;;4907172;28;46244;-71
2022/11/17 07:31:15;;;;;;;;;2.33;1.00;;;;;;;;4893193;28;45370;-72
2022/11/17 07:33:40;;;;;;;;;3.00;0.00;;;;;;;;4910565;28;45921;-71
2022/11/17 07:36:08;;;;;;;;;2.00;0.00;;;;;;;;4893921;28;46366;-71
2022/11/17 07:38:33;;;;;;;;;1.00;1.00;;;;;;;;4895022;28;45788;-71
2022/11/17 07:40:59;;;;;;;;;0.33;0.33;;;;;;;;4905611;28;45370;-70
2022/11/17 07:43:25;;;;;;;;;1.00;1.00;;;;;;;;4910666;28;45487;-70
2022/11/17 07:45:50;;;;;;;;;4.00;2.67;;;;;;;;4882505;28;45813;-72
2022/11/17 07:48:15;;;;;;;;;2.33;2.33;;;;;;;;4911851;28;48480;-73
2022/11/17 07:50:41;;;;;;;;;2.67;0.67;;;;;;;;4923418;28;45814;-71
2022/11/17 07:53:06;;;;;;;;;3.33;2.00;;;;;;;;4913870;28;45831;-71
2022/11/17 07:55:31;;;;;;;;;1.33;1.00;;;;;;;;4914288;28;45875;-70
2022/11/17 07:57:58;;;;;;;;;1.67;1.67;;;;;;;;4922009;28;45598;-71
2022/11/17 08:00:23;;;;;;;;;2.33;0.67;;;;;;;;4909811;28;45808;-73
2022/11/17 08:02:49;;;;;;;;;0.00;0.00;;;;;;;;4901776;28;45431;-71
2022/11/17 08:05:16;;;;;;;;;1.67;1.67;;;;;;;;4910520;28;45830;-70
2022/11/17 08:07:41;;;;;;;;;1.00;1.00;;;;;;;;4909166;28;46153;-72
2022/11/17 08:10:07;;;;;;;;;0.67;0.00;;;;;;;;4903760;28;45653;-72
2022/11/17 08:12:33;;;;;;;;;1.33;1.33;;;;;;;;4914905;28;45738;-73
2022/11/17 08:14:58;;;;;;;;;6.33;2.67;;;;;;;;4908245;28;46273;-70
2022/11/17 08:17:23;;;;;;;;;1.00;0.67;;;;;;;;4898405;28;45639;-70
2022/11/17 08:19:48;;;;;;;;;0.67;0.67;;;;;;;;4907397;28;45989;-70
2022/11/17 08:22:14;;;;;;;;;1.00;1.00;;;;;;;;4908219;28;45713;-71
2022/11/17 08:24:39;;;;;;;;;1.00;1.00;;;;;;;;4909148;28;45959;-71
2022/11/17 08:27:04;;;;;;;;;1.33;1.00;;;;;;;;4909795;28;46717;-70
2022/11/17 08:29:29;;;;;;;;;2.00;1.67;;;;;;;;4889245;28;45358;-70
2022/11/17 08:31:55;;;;;;;;;3.67;3.67;;;;;;;;4907875;28;45922;-71
2022/11/17 08:34:20;;;;;;;;;1.00;0.67;;;;;;;;4901689;28;45975;-70
2022/11/17 08:36:45;;;;;;;;;4.67;1.67;;;;;;;;4904018;28;46344;-71
2022/11/17 08:39:10;;;;;;;;;4.00;1.00;;;;;;;;4913859;28;45593;-70
2022/11/17 08:41:36;;;;;;;;;0.00;0.00;;;;;;;;4906541;28;45620;-70
2022/11/17 08:44:01;;;;;;;;;3.00;1.00;;;;;;;;4908982;28;45817;-70
2022/11/17 08:46:26;;;;;;;;;4.33;0.67;;;;;;;;4899189;28;46272;-71
2022/11/17 08:48:51;;;;;;;;;1.67;0.33;;;;;;;;4898969;28;45460;-69
2022/11/17 08:51:16;;;;;;;;;2.00;1.00;;;;;;;;4909984;28;45409;-70
2022/11/17 08:53:42;;;;;;;;;1.33;1.33;;;;;;;;4898805;28;45469;-72
2022/11/17 08:56:08;;;;;;;;;1.67;0.00;;;;;;;;4901960;28;46256;-70
2022/11/17 08:58:41;;;;;;;;;1.33;1.33;;;;;;;;4905597;28;45657;-70
2022/11/17 09:01:07;;;;;;;;;0.50;0.50;;;;;;;;4914829;28;45761;-70
2022/11/17 09:03:33;;;;;;;;;5.33;0.67;;;;;;;;4905723;28;46025;-69
2022/11/17 09:05:58;;;;;;;;;0.33;0.00;;;;;;;;4891183;28;45834;-71
2022/11/17 09:08:24;;;;;;;;;2.00;1.00;;;;;;;;4900631;28;46483;-71
2022/11/17 09:10:50;;;;;;;;;1.33;1.33;;;;;;;;4902826;28;45708;-72
2022/11/17 09:13:15;;;;;;;;;0.00;0.00;;;;;;;;4897609;28;45991;-71
2022/11/17 09:15:41;;;;;;;;;2.00;1.00;;;;;;;;4899331;28;45755;-72
2022/11/17 09:18:06;;;;;;;;;1.25;1.25;;;;;;;;4898120;28;45967;-72
2022/11/17 09:20:31;;;;;;;;;2.33;1.00;;;;;;;;4900465;28;45799;-72
2022/11/17 09:23:02;;;;;;;;;1.00;1.00;;;;;;;;4905405;28;45740;-72
2022/11/17 09:25:28;;;;;;;;;4.33;2.33;;;;;;;;4905599;28;45445;-72
2022/11/17 09:27:53;;;;;;;;;1.00;1.00;;;;;;;;4897547;28;45414;-70
2022/11/17 09:30:21;;;;;;;;;2.33;1.00;;;;;;;;4909864;28;45663;-70
2022/11/17 09:32:47;;;;;;;;;2.25;1.00;;;;;;;;4904255;28;45680;-73
2022/11/17 09:35:13;;;;;;;;;0.75;0.75;;;;;;;;4903163;28;46461;-73
2022/11/17 09:37:38;;;;;;;;;1.00;1.00;;;;;;;;4907439;28;45391;-70
2022/11/17 09:40:03;;;;;;;;;2.67;1.67;;;;;;;;4911991;28;45496;-71
2022/11/17 09:42:29;;;;;;;;;2.25;1.00;;;;;;;;4901463;28;45292;-70
2022/11/17 09:45:24;;;;;;;;;2.50;2.00;;;;;;;;4910270;28;45385;-72
2022/11/17 09:48:10;;;;;;;;;3.25;1.25;;;;;;;;4891395;28;45345;-73
2022/11/17 09:50:37;;;;;;;;;4.00;2.50;;;;;;;;4908882;28;45408;-71
2022/11/17 09:53:14;;;;;;;;;2.00;1.00;;;;;;;;4906877;28;45529;-72
2022/11/17 09:55:40;;;;;;;;;3.75;2.00;;;;;;;;4892561;28;46336;-71
2022/11/17 09:58:14;;;;;;;;;6.25;0.25;;;;;;;;4893486;28;45892;-71
2022/11/17 10:00:42;;;;;;;;;1.00;0.00;;;;;;;;4913708;28;45953;-71
2022/11/17 10:03:33;;;;;;;;;2.25;1.50;;;;;;;;4900317;28;45963;-72
2022/11/17 10:06:00;;;;;;;;;1.00;1.00;;;;;;;;4918784;28;45490;-73
2022/11/17 10:08:35;;;;;;;;;0.50;0.50;;;;;;;;4910191;28;46400;-73
2022/11/17 10:11:30;;;;;;;;;2.50;1.00;;;;;;;;4898272;28;45818;-72
2022/11/17 10:13:48;;;;;;;;;1.00;1.00;;;;;;;;4909030;28;45784;-72
2022/11/17 10:16:14;;;;;;;;;4.50;1.00;;;;;;;;4901892;28;46136;-72
2022/11/17 10:18:39;;;;;;;;;1.75;1.75;;;;;;;;4903174;28;45640;-72
2022/11/17 10:21:05;;;;;;;;;2.50;1.50;;;;;;;;4906648;28;45742;-71
2022/11/17 10:23:43;;;;;;;;;3.00;2.00;;;;;;;;4899237;28;45465;-72
2022/11/17 10:26:10;;;;;;;;;1.75;1.00;;;;;;;;4903666;28;45445;-71
2022/11/17 10:28:36;;;;;;;;;2.00;1.00;;;;;;;;4908810;28;45710;-71
2022/11/17 10:31:03;;;;;;;;;2.00;1.00;;;;;;;;4919041;28;45704;-72
2022/11/17 10:33:39;;;;;;;;;2.50;2.25;;;;;;;;4904998;28;46305;-70
2022/11/17 10:36:06;;;;;;;;;0.50;0.00;;;;;;;;4898296;28;46867;-73
2022/11/17 10:38:32;;;;;;;;;1.50;1.25;;;;;;;;4911277;28;45397;-70
2022/11/17 10:40:59;;;;;;;;;4.25;1.00;;;;;;;;4907118;28;45384;-71
2022/11/17 10:43:26;;;;;;;;;2.75;2.00;;;;;;;;4910650;28;46114;-71
2022/11/17 10:45:55;;;;;;;;;0.00;0.00;;;;;;;;4913150;28;46064;-72
2022/11/17 10:48:21;;;;;;;;;1.00;1.00;;;;;;;;4905932;28;45480;-71
2022/11/17 10:50:56;;;;;;;;;1.50;0.75;;;;;;;;4909499;28;45589;-70
2022/11/17 10:53:43;;;;;;;;;1.50;1.50;;;;;;;;4893997;28;45778;-71
2022/11/17 10:56:08;;;;;;;;;0.50;0.50;;;;;;;;4909823;28;45950;-71
2022/11/17 10:58:58;;;;;;;;;5.00;1.00;;;;;;;;4907633;28;45740;-71
2022/11/17 11:01:31;;;;;;;;;0.75;0.75;;;;;;;;4864290;28;45956;-71
2022/11/17 11:03:56;;;;;;;;;1.00;0.50;;;;;;;;4911159;28;45762;-67
2022/11/17 11:06:23;;;;;;;;;0.25;0.00;;;;;;;;4895928;28;45859;-69
2022/11/17 11:08:57;;;;;;;;;2.00;1.00;;;;;;;;4912303;28;45883;-67
2022/11/17 11:11:43;;;;;;;;;0.50;0.50;;;;;;;;4912399;28;45848;-67
2022/11/17 11:14:17;;;;;;;;;0.25;0.00;;;;;;;;4900190;28;45884;-66
2022/11/17 11:16:45;;;;;;;;;1.75;0.00;;;;;;;;4897815;28;47092;-65
2022/11/17 11:19:13;;;;;;;;;0.75;0.75;;;;;;;;4895691;28;45443;-67
2022/11/17 11:22:01;;;;;;;;;2.00;0.00;;;;;;;;4890934;28;45779;-70
2022/11/17 11:24:52;;;;;;;;;2.50;0.00;;;;;;;;4885311;28;47238;-67
2022/11/17 11:27:26;;;;;;;;;1.75;1.00;;;;;;;;4894446;28;46185;-65
2022/11/17 11:29:59;;;;;;;;;4.25;1.00;;;;;;;;4909739;28;45334;-67
2022/11/17 11:32:25;;;;;;;;;0.50;0.00;;;;;;;;4906331;28;45964;-68
2022/11/17 11:34:59;;;;;;;;;1.00;1.00;;;;;;;;4881768;28;45852;-67
2022/11/17 11:37:33;;;;;;;;;1.00;1.00;;;;;;;;4910483;28;45716;-68
2022/11/17 11:40:20;;;;;;;;;1.50;1.00;;;;;;;;4899828;28;45525;-67
2022/11/17 11:42:57;;;;;;;;;1.50;0.25;;;;;;;;4912088;28;45506;-69
2022/11/17 11:45:28;;;;;;;;;1.00;0.00;;;;;;;;4885890;28;46133;-66
2022/11/17 11:48:12;;;;;;;;;0.00;0.00;;;;;;;;4910793;28;45422;-66
2022/11/17 11:50:46;;;;;;;;;2.00;0.00;;;;;;;;4907047;28;45920;-69
2022/11/17 11:53:15;;;;;;;;;1.50;1.00;;;;;;;;4905951;28;45782;-67
2022/11/17 11:55:43;;;;;;;;;1.25;0.25;;;;;;;;4896919;28;45597;-67
2022/11/17 11:58:12;;;;;;;;;0.50;0.50;;;;;;;;4908753;28;45523;-68
2022/11/17 12:00:38;;;;;;;;;2.00;1.00;;;;;;;;4913223;28;45782;-67
2022/11/17 12:03:21;;;;;;;;;0.00;0.00;;;;;;;;4906466;28;45474;-67
2022/11/17 12:06:40;;;;;;;;;1.00;1.00;;;;;;;;4912087;28;45521;-67
2022/11/17 12:09:13;;;;;;;;;1.00;0.25;;;;;;;;4835539;29;47250;-70
2022/11/17 12:17:17;;;;;;;;;0.75;0.00;;;;;;;;4882378;26;46196;-67
2022/11/17 12:19:48;;;;;;;;;1.00;0.00;;;;;;;;4932336;28;45528;-68
2022/11/17 12:22:19;;;;;;;;;1.50;0.00;;;;;;;;4933589;28;45520;-66
2022/11/17 12:24:45;;;;;;;;;1.25;0.00;;;;;;;;4932674;28;45793;-68
2022/11/17 12:27:29;;;;;;;;;1.50;0.75;;;;;;;;4932993;28;45926;-65
2022/11/17 12:29:55;;;;;;;;;1.00;1.00;;;;;;;;4930540;28;45525;-66
2022/11/17 12:32:39;;;;;;;;;2.00;0.25;;;;;;;;4928507;28;45746;-67
2022/11/17 12:35:23;;;;;;;;;0.00;0.00;;;;;;;;4912188;28;45475;-64
2022/11/17 12:37:48;;;;;;;;;1.00;0.00;;;;;;;;4914104;28;46997;-65
2022/11/17 12:40:45;;;;;;;;;1.00;1.00;;;;;;;;4929112;28;46804;-67
2022/11/17 12:43:14;;;;;;;;;1.00;0.00;;;;;;;;4886425;28;45827;-66
2022/11/17 12:45:51;;;;;;;;;0.00;0.00;;;;;;;;4933275;28;45457;-66
2022/11/17 12:48:18;;;;;;;;;1.00;1.00;;;;;;;;4931209;28;45960;-66
2022/11/17 12:51:06;;;;;;;;;2.00;0.00;;;;;;;;4929361;28;45661;-65
2022/11/17 12:53:34;;;;;;;;;0.00;0.00;;;;;;;;4894570;28;45872;-65
2022/11/17 12:56:26;;;;;;;;;0.25;0.00;;;;;;;;4914916;28;46472;-66
2022/11/17 12:58:52;;;;;;;;;0.00;0.00;;;;;;;;4895697;28;46043;-65
2022/11/17 13:01:29;;;;;;;;;0.00;0.00;;;;;;;;4932432;28;45831;-67
2022/11/17 13:03:58;;;;;;;;;0.00;0.00;;;;;;;;4932684;28;45785;-66
2022/11/17 13:06:23;;;;;;;;;1.00;0.00;;;;;;;;4934166;28;45810;-64
2022/11/17 13:08:59;;;;;;;;;0.00;0.00;;;;;;;;4935794;28;45732;-71
2022/11/17 13:11:24;;;;;;;;;1.50;0.00;;;;;;;;4916089;28;47006;-72
2022/11/17 13:14:05;;;;;;;;;0.00;0.00;;;;;;;;4915055;28;45574;-72
2022/11/17 13:16:30;;;;;;;;;0.25;0.00;;;;;;;;4931740;28;45393;-72
2022/11/17 13:18:55;;;;;;;;;0.50;0.50;;;;;;;;4933003;28;45346;-67
2022/11/17 13:21:24;;;;;;;;;0.00;0.00;;;;;;;;4932308;28;46161;-67
2022/11/17 13:23:49;;;;;;;;;0.00;0.00;;;;;;;;4931391;28;45743;-68
2022/11/17 13:26:19;;;;;;;;;2.00;0.25;;;;;;;;4933405;28;45646;-66
2022/11/17 13:28:44;;;;;;;;;0.00;0.00;;;;;;;;4928508;28;46950;-65
2022/11/17 13:31:21;;;;;;;;;1.25;0.00;;;;;;;;4914367;28;48061;-66
2022/11/17 13:34:02;;;;;;;;;0.00;0.00;;;;;;;;4930836;28;45440;-65
2022/11/17 13:36:27;;;;;;;;;1.00;0.00;;;;;;;;4932206;28;45661;-66
2022/11/17 13:38:56;;;;;;;;;1.00;0.00;;;;;;;;4931612;28;45498;-66
2022/11/17 13:41:23;;;;;;;;;0.75;0.00;;;;;;;;4931074;28;45588;-66
2022/11/17 13:43:49;;;;;;;;;0.00;0.00;;;;;;;;4914909;28;46047;-67
2022/11/17 13:46:14;;;;;;;;;0.75;0.75;;;;;;;;4931908;28;45500;-67
2022/11/17 13:48:41;;;;;;;;;0.00;0.00;;;;;;;;4931683;28;45946;-65
2022/11/17 13:51:18;;;;;;;;;0.00;0.00;;;;;;;;4932257;28;45859;-65
2022/11/17 13:53:46;;;;;;;;;0.75;0.75;;;;;;;;4931848;28;45883;-66
2022/11/17 13:56:30;;;;;;;;;0.00;0.00;;;;;;;;4932662;28;45787;-64
2022/11/17 13:58:56;;;;;;;;;2.00;0.00;;;;;;;;4934076;28;45622;-65
2022/11/17 14:01:22;;;;;;;;;0.75;0.75;;;;;;;;4929783;28;46353;-69
2022/11/17 14:03:48;;;;;;;;;1.00;0.00;;;;;;;;4903400;28;45782;-66
2022/11/17 14:06:14;;;;;;;;;1.00;1.00;;;;;;;;4924591;28;45848;-65
2022/11/17 14:08:41;;;;;;;;;3.75;0.00;;;;;;;;4930599;28;45769;-65
2022/11/17 14:11:12;;;;;;;;;3.00;0.00;;;;;;;;4930981;28;46340;-68
2022/11/17 14:13:51;;;;;;;;;0.50;0.50;;;;;;;;4936490;28;45900;-65
2022/11/17 14:16:21;;;;;;;;;0.00;0.00;;;;;;;;4919416;28;45495;-66
2022/11/17 14:18:57;;;;;;;;;0.00;0.00;;;;;;;;4911778;28;45713;-65
2022/11/17 14:21:22;;;;;;;;;3.00;0.00;;;;;;;;4913812;28;45372;-65
2022/11/17 14:23:47;;;;;;;;;0.00;0.00;;;;;;;;4917380;28;45395;-66
2022/11/17 14:26:16;;;;;;;;;0.00;0.00;;;;;;;;4904243;28;45767;-66
2022/11/17 14:28:41;;;;;;;;;2.00;1.00;;;;;;;;4897361;28;45881;-67
2022/11/17 14:31:10;;;;;;;;;1.00;1.00;;;;;;;;4908000;28;45412;-66
2022/11/17 14:33:35;;;;;;;;;1.00;0.00;;;;;;;;4912200;28;45721;-67
2022/11/17 14:36:00;;;;;;;;;0.00;0.00;;;;;;;;4905120;28;45709;-67
2022/11/17 14:38:26;;;;;;;;;0.75;0.75;;;;;;;;4914918;28;45894;-67
2022/11/17 14:40:51;;;;;;;;;0.50;0.50;;;;;;;;4913909;28;45890;-65
2022/11/17 14:43:17;;;;;;;;;0.75;0.75;;;;;;;;4910327;28;45318;-66
2022/11/17 14:45:43;;;;;;;;;0.00;0.00;;;;;;;;4914255;28;45538;-66
2022/11/17 14:48:09;;;;;;;;;0.25;0.00;;;;;;;;4912558;28;45500;-66
2022/11/17 14:50:34;;;;;;;;;4.00;1.75;;;;;;;;4911660;28;45697;-66
2022/11/17 14:53:00;;;;;;;;;0.00;0.00;;;;;;;;4923893;28;45951;-65
2022/11/17 14:55:25;;;;;;;;;54.00;41.33;;;;;;;;4911771;28;45670;-66
2022/11/17 14:57:51;;;;;;;;;3.00;0.00;;;;;;;;4924381;28;45853;-66
2022/11/17 15:00:17;;;;;;;;;1.00;1.00;;;;;;;;4894712;28;48243;-66
2022/11/17 15:02:42;;;;;;;;;2.00;1.00;;;;;;;;4913938;28;45805;-67
2022/11/17 15:05:08;;;;;;;;;1.33;1.00;;;;;;;;4901839;28;46044;-69
2022/11/17 15:07:33;;;;;;;;;1.75;0.50;;;;;;;;4895657;28;46162;-68
2022/11/17 15:09:59;;;;;;;;;0.50;0.50;;;;;;;;4915601;28;45306;-68
2022/11/17 15:12:24;;;;;;;;;1.00;1.00;;;;;;;;4915417;28;45358;-67
2022/11/17 15:14:49;;;;;;;;;1.50;0.00;;;;;;;;4916012;28;45713;-67
2022/11/17 15:17:15;;;;;;;;;3.33;2.00;;;;;;;;5060379;23;45983;-67
2022/11/17 15:19:41;;;;;;;;;1.50;1.00;;;;;;;;4932378;28;45689;-67
2022/11/17 15:22:06;;;;;;;;;0.00;0.00;;;;;;;;4929461;28;45823;-68